createdAt,value
2022-09-17T00:01:33.095Z,98693.28
2022-09-17T00:04:04.936Z,98697.03
2022-09-17T00:06:33.868Z,98690.66
2022-09-17T00:09:01.716Z,98687.63
2022-09-17T00:11:31.203Z,98699.00
2022-09-17T00:14:01.825Z,98692.69
2022-09-17T00:16:31.318Z,98695.53
2022-09-17T00:19:00.030Z,98692.97
2022-09-17T00:21:28.292Z,98697.03
2022-09-17T00:23:56.971Z,98685.59
2022-09-17T00:26:24.866Z,98700.56
2022-09-17T00:28:52.687Z,98698.81
2022-09-17T00:31:22.522Z,98693.16
2022-09-17T00:33:50.632Z,98695.19
2022-09-17T00:36:20.439Z,98696.81
2022-09-17T00:38:50.202Z,98702.16
2022-09-17T00:41:18.075Z,98693.28
2022-09-17T00:43:47.585Z,98699.72
2022-09-17T00:46:26.075Z,98686.38
2022-09-17T00:48:54.569Z,98701.50
2022-09-17T00:51:28.651Z,98703.28
2022-09-17T00:53:56.714Z,98696.63
2022-09-17T00:56:27.156Z,98709.06
2022-09-17T00:58:55.847Z,98707.22
2022-09-17T01:01:25.062Z,98707.59
2022-09-17T01:03:52.699Z,98717.34
2022-09-17T01:06:26.639Z,98715.84
2022-09-17T01:09:04.815Z,98711.16
2022-09-17T01:11:41.454Z,98703.22
2022-09-17T01:14:19.582Z,98711.03
2022-09-17T01:16:55.421Z,98722.44
2022-09-17T01:19:45.400Z,98717.41
2022-09-17T01:22:15.223Z,98712.38
2022-09-17T01:25:17.881Z,98718.31
2022-09-17T01:28:02.695Z,98720.81
2022-09-17T01:30:41.480Z,98720.88
2022-09-17T01:33:15.015Z,98715.34
2022-09-17T01:35:47.515Z,98723.50
2022-09-17T01:38:20.439Z,98721.78
2022-09-17T01:40:51.365Z,98723.75
2022-09-17T01:43:23.187Z,98720.88
2022-09-17T01:45:53.348Z,98719.16
2022-09-17T01:48:22.013Z,98723.31
2022-09-17T01:50:53.558Z,98717.34
2022-09-17T01:53:23.907Z,98718.47
2022-09-17T01:55:53.161Z,98719.31
2022-09-17T01:58:24.928Z,98727.06
2022-09-17T02:00:57.372Z,98723.66
2022-09-17T02:03:30.376Z,98721.44
2022-09-17T02:06:01.664Z,98720.25
2022-09-17T02:08:32.573Z,98719.53
2022-09-17T02:11:04.615Z,98721.03
2022-09-17T02:13:34.412Z,98709.66
2022-09-17T02:16:07.287Z,98717.53
2022-09-17T02:18:38.720Z,98719.47
2022-09-17T02:21:09.755Z,98729.31
2022-09-17T02:23:44.412Z,98736.16
2022-09-17T02:26:14.797Z,98740.19
2022-09-17T02:28:44.898Z,98737.91
2022-09-17T02:31:14.059Z,98748.00
2022-09-17T02:33:42.969Z,98742.44
2022-09-17T02:36:10.568Z,98740.25
2022-09-17T02:38:39.530Z,98728.63
2022-09-17T02:41:14.338Z,98729.41
2022-09-17T02:43:51.151Z,98740.44
2022-09-17T02:46:32.560Z,98739.53
2022-09-17T02:49:11.460Z,98731.59
2022-09-17T02:51:46.331Z,98739.34
2022-09-17T02:54:19.187Z,98734.78
2022-09-17T02:56:51.998Z,98735.59
2022-09-17T02:59:24.863Z,98735.59
2022-09-17T03:01:58.105Z,98742.28
2022-09-17T03:04:26.583Z,98731.19
2022-09-17T03:06:54.209Z,98732.69
2022-09-17T03:09:21.776Z,98740.13
2022-09-17T03:11:49.285Z,98732.69
2022-09-17T03:14:16.862Z,98727.34
2022-09-17T03:16:44.412Z,98709.28
2022-09-17T03:19:13.331Z,98715.34
2022-09-17T03:21:40.825Z,98725.06
2022-09-17T03:24:08.650Z,98722.63
2022-09-17T03:26:36.164Z,98722.56
2022-09-17T03:29:03.741Z,98728.81
2022-09-17T03:31:31.304Z,98727.56
2022-09-17T03:33:59.407Z,98719.75
2022-09-17T03:36:28.422Z,98725.91
2022-09-17T03:38:56.326Z,98725.06
2022-09-17T03:41:24.542Z,98720.13
2022-09-17T03:43:52.091Z,98723.81
2022-09-17T03:46:20.254Z,98723.09
2022-09-17T03:48:48.084Z,98726.22
2022-09-17T03:51:15.651Z,98728.72
2022-09-17T03:53:44.533Z,98734.91
2022-09-17T03:56:12.092Z,98737.66
2022-09-17T03:58:39.872Z,98731.63
2022-09-17T04:01:07.608Z,98738.47
2022-09-17T04:03:35.560Z,98735.47
2022-09-17T04:06:03.154Z,98744.50
2022-09-17T04:08:30.704Z,98743.50
2022-09-17T04:10:59.614Z,98746.94
2022-09-17T04:13:27.152Z,98757.50
2022-09-17T04:15:54.941Z,98755.47
2022-09-17T04:18:22.549Z,98760.22
2022-09-17T04:20:50.102Z,98748.50
2022-09-17T04:23:17.688Z,98760.06
2022-09-17T04:25:45.247Z,98758.16
2022-09-17T04:28:14.152Z,98761.84
2022-09-17T04:30:42.903Z,98758.88
2022-09-17T04:33:10.880Z,98763.03
2022-09-17T04:35:38.440Z,98760.53
2022-09-17T04:38:06.035Z,98765.84
2022-09-17T04:40:33.667Z,98765.97
2022-09-17T04:43:03.366Z,98773.94
2022-09-17T04:45:33.334Z,98767.75
2022-09-17T04:48:01.811Z,98766.38
2022-09-17T04:50:29.404Z,98771.38
2022-09-17T04:52:57.061Z,98773.16
2022-09-17T04:55:25.266Z,98766.25
2022-09-17T04:57:54.153Z,98790.94
2022-09-17T05:00:22.696Z,98789.97
2022-09-17T05:02:53.230Z,98785.97
2022-09-17T05:05:21.370Z,98790.94
2022-09-17T05:07:48.937Z,98792.78
2022-09-17T05:10:18.022Z,98782.75
2022-09-17T05:12:49.045Z,98789.19
2022-09-17T05:15:17.458Z,98788.66
2022-09-17T05:17:45.062Z,98793.59
2022-09-17T05:20:14.496Z,98796.38
2022-09-17T05:22:43.774Z,98800.69
2022-09-17T05:25:12.041Z,98792.16
2022-09-17T05:27:40.098Z,98799.44
2022-09-17T05:30:09.086Z,98794.31
2022-09-17T05:32:36.725Z,98792.47
2022-09-17T05:35:05.907Z,98779.66
2022-09-17T05:37:35.269Z,98795.97
2022-09-17T05:40:03.383Z,98794.53
2022-09-17T05:42:31.039Z,98802.28
2022-09-17T05:44:58.557Z,98811.69
2022-09-17T05:47:26.216Z,98807.00
2022-09-17T05:49:53.782Z,98818.19
2022-09-17T05:52:21.416Z,98807.59
2022-09-17T05:54:50.318Z,98819.63
2022-09-17T05:57:17.876Z,98820.56
2022-09-17T05:59:45.401Z,98831.59
2022-09-17T06:02:14.354Z,98831.38
2022-09-17T06:04:41.938Z,98827.72
2022-09-17T06:07:09.550Z,98844.41
2022-09-17T06:09:38.468Z,98834.00
2022-09-17T06:12:08.144Z,98850.16
2022-09-17T06:14:35.676Z,98839.63
2022-09-17T06:17:03.224Z,98846.47
2022-09-17T06:19:30.776Z,98845.66
2022-09-17T06:21:58.353Z,98848.50
2022-09-17T06:24:25.905Z,98842.44
2022-09-17T06:26:53.532Z,98846.50
2022-09-17T06:29:22.445Z,98841.03
2022-09-17T06:31:50.096Z,98833.69
2022-09-17T06:34:18.215Z,98834.25
2022-09-17T06:36:45.766Z,98847.06
2022-09-17T06:39:13.405Z,98840.56
2022-09-17T06:41:43.115Z,98843.41
2022-09-17T06:44:10.668Z,98847.59
2022-09-17T06:46:39.615Z,98842.31
2022-09-17T06:49:07.173Z,98837.22
2022-09-17T06:51:34.709Z,98840.31
2022-09-17T06:54:02.415Z,98841.88
2022-09-17T06:56:29.968Z,98851.03
2022-09-17T06:58:57.557Z,98849.53
2022-09-17T07:01:25.334Z,98845.66
2022-09-17T07:03:54.784Z,98860.88
2022-09-17T07:06:22.481Z,98867.78
2022-09-17T07:08:51.133Z,98864.91
2022-09-17T07:11:18.687Z,98856.28
2022-09-17T07:13:46.293Z,98865.66
2022-09-17T07:16:13.990Z,98863.47
2022-09-17T07:18:41.516Z,98869.81
2022-09-17T07:21:10.951Z,98860.50
2022-09-17T07:23:38.835Z,98853.59
2022-09-17T07:26:08.375Z,98856.16
2022-09-17T07:28:36.066Z,98857.25
2022-09-17T07:31:05.205Z,98863.81
2022-09-17T07:33:33.795Z,98853.00
2022-09-17T07:36:02.843Z,98852.81
2022-09-17T07:38:32.137Z,98850.34
2022-09-17T07:41:01.167Z,98859.13
2022-09-17T07:43:29.883Z,98860.06
2022-09-17T07:45:58.425Z,98852.41
2022-09-17T07:48:26.411Z,98857.44
2022-09-17T07:50:54.149Z,98849.56
2022-09-17T07:53:22.582Z,98858.03
2022-09-17T07:55:55.169Z,98865.69
2022-09-17T07:58:23.008Z,98862.78
2022-09-17T08:00:50.839Z,98864.22
2022-09-17T08:03:18.523Z,98871.06
2022-09-17T08:05:46.058Z,98876.78
2022-09-17T08:08:14.244Z,98871.66
2022-09-17T08:10:44.130Z,98872.78
2022-09-17T08:13:13.053Z,98873.19
2022-09-17T08:15:40.649Z,98870.63
2022-09-17T08:18:08.537Z,98871.72
2022-09-17T08:20:36.133Z,98882.53
2022-09-17T08:23:03.684Z,98876.50
2022-09-17T08:25:31.212Z,98871.91
2022-09-17T08:27:58.769Z,98872.38
2022-09-17T08:30:28.261Z,98867.06
2022-09-17T08:32:56.658Z,98862.44
2022-09-17T08:35:26.123Z,98865.38
2022-09-17T08:37:55.641Z,98871.44
2022-09-17T08:40:23.547Z,98865.75
2022-09-17T08:42:56.526Z,98863.16
2022-09-17T08:45:26.349Z,98868.22
2022-09-17T08:47:57.209Z,98855.09
2022-09-17T08:50:28.607Z,98865.66
2022-09-17T08:53:21.314Z,98868.53
2022-09-17T08:55:52.964Z,98873.31
2022-09-17T08:58:38.943Z,98881.63
2022-09-17T09:01:17.560Z,98875.19
2022-09-17T09:03:59.593Z,98865.75
2022-09-17T09:06:31.076Z,98865.94
2022-09-17T09:09:03.748Z,98854.75
2022-09-17T09:11:32.594Z,98856.16
2022-09-17T09:14:05.572Z,98854.69
2022-09-17T09:16:34.196Z,98851.81
2022-09-17T09:19:16.065Z,98856.09
2022-09-17T09:21:49.511Z,98849.50
2022-09-17T09:24:20.579Z,98860.13
2022-09-17T09:26:51.801Z,98856.63
2022-09-17T09:29:29.011Z,98869.16
2022-09-17T09:32:15.870Z,98863.66
2022-09-17T09:34:46.907Z,98864.00
2022-09-17T09:37:18.751Z,98863.78
2022-09-17T09:39:47.326Z,98873.84
2022-09-17T09:42:17.767Z,98880.28
2022-09-17T09:44:45.342Z,98879.44
2022-09-17T09:47:24.556Z,98876.81
2022-09-17T09:50:08.135Z,98881.00
2022-09-17T09:52:49.792Z,98895.91
2022-09-17T09:55:33.858Z,98894.03
2022-09-17T09:58:07.922Z,98885.72
2022-09-17T10:00:37.663Z,98893.94
2022-09-17T10:03:10.978Z,98894.78
2022-09-17T10:05:40.014Z,98883.31
2022-09-17T10:08:14.589Z,98889.75
2022-09-17T10:10:55.865Z,98894.22
2022-09-17T10:13:23.527Z,98893.19
2022-09-17T10:15:51.149Z,98899.34
2022-09-17T10:18:20.042Z,98891.94
2022-09-17T10:20:54.114Z,98900.06
2022-09-17T10:23:22.113Z,98901.06
2022-09-17T10:25:52.070Z,98901.72
2022-09-17T10:28:30.932Z,98895.56
2022-09-17T10:30:59.323Z,98900.78
2022-09-17T10:33:28.646Z,98892.28
2022-09-17T10:36:01.270Z,98891.31
2022-09-17T10:38:34.920Z,98896.94
2022-09-17T10:41:17.757Z,98889.56
2022-09-17T10:43:45.604Z,98879.09
2022-09-17T10:46:17.141Z,98895.47
2022-09-17T10:48:47.367Z,98887.34
2022-09-17T10:51:23.921Z,98891.44
2022-09-17T10:54:04.651Z,98881.38
2022-09-17T10:56:36.346Z,98880.88
2022-09-17T10:59:18.032Z,98874.31
2022-09-17T11:01:56.160Z,98864.63
2022-09-17T11:04:30.894Z,98872.06
2022-09-17T11:07:30.421Z,98871.00
2022-09-17T11:10:04.719Z,98870.16
2022-09-17T11:12:42.392Z,98868.59
2022-09-17T11:15:26.590Z,98862.63
2022-09-17T11:18:04.239Z,98866.44
2022-09-17T11:20:42.394Z,98876.44
2022-09-17T11:23:27.674Z,98870.66
2022-09-17T11:26:00.675Z,98879.56
2022-09-17T11:28:43.983Z,98873.47
2022-09-17T11:31:24.448Z,98873.72
2022-09-17T11:34:06.440Z,98865.44
2022-09-17T11:36:39.229Z,98861.91
2022-09-17T11:39:12.149Z,98855.03
2022-09-17T11:41:43.513Z,98837.97
2022-09-17T11:44:14.420Z,98841.44
2022-09-17T11:46:44.794Z,98836.25
2022-09-17T11:49:17.925Z,98835.66
2022-09-17T11:51:49.125Z,98831.25
2022-09-17T11:54:22.990Z,98836.44
2022-09-17T11:56:52.410Z,98832.66
2022-09-17T11:59:26.204Z,98822.31
2022-09-17T12:01:57.959Z,98823.53
2022-09-17T12:04:38.521Z,98818.69
2022-09-17T12:07:18.909Z,98826.75
2022-09-17T12:09:51.277Z,98820.25
2022-09-17T12:12:45.058Z,98820.19
2022-09-17T12:15:16.658Z,98808.69
2022-09-17T12:17:46.762Z,98815.66
2022-09-17T12:20:23.649Z,98804.28
2022-09-17T12:22:52.170Z,98805.38
2022-09-17T12:25:21.794Z,98805.06
2022-09-17T12:27:54.391Z,98807.28
2022-09-17T12:30:25.771Z,98806.19
2022-09-17T12:33:15.867Z,98802.94
2022-09-17T12:36:10.842Z,98802.44
2022-09-17T12:38:55.890Z,98799.78
2022-09-17T12:41:30.653Z,98799.16
2022-09-17T12:44:07.651Z,98798.94
2022-09-17T12:46:55.605Z,98803.94
2022-09-17T12:49:38.851Z,98801.34
2022-09-17T12:52:09.386Z,98803.53
2022-09-17T12:54:57.379Z,98798.69
2022-09-17T12:57:33.624Z,98807.38
2022-09-17T13:00:07.909Z,98807.56
2022-09-17T13:02:39.534Z,98802.22
2022-09-17T13:05:51.739Z,98803.66
2022-09-17T13:09:00.602Z,98808.94
2022-09-17T13:11:50.941Z,98808.19
2022-09-17T13:14:26.549Z,98804.38
2022-09-17T13:16:56.563Z,98797.44
2022-09-17T13:19:32.280Z,98792.56
2022-09-17T13:22:02.633Z,98787.97
2022-09-17T13:24:31.549Z,98781.34
2022-09-17T13:27:02.023Z,98781.22
2022-09-17T13:30:03.667Z,98776.50
2022-09-17T13:32:50.971Z,98772.75
2022-09-17T13:35:52.447Z,98765.84
2022-09-17T13:38:23.690Z,98770.69
2022-09-17T13:40:59.393Z,98775.19
2022-09-17T13:43:28.038Z,98762.91
2022-09-17T13:46:17.784Z,98763.75
2022-09-17T13:48:49.298Z,98777.19
2022-09-17T13:51:59.443Z,98782.34
2022-09-17T13:54:38.844Z,98812.94
2022-09-17T13:57:10.171Z,98818.69
2022-09-17T13:59:38.401Z,98802.63
2022-09-17T14:02:32.685Z,98793.25
2022-09-17T14:05:36.888Z,98801.50
2022-09-17T14:08:14.017Z,98803.16
2022-09-17T14:10:44.131Z,98799.22
2022-09-17T14:13:27.013Z,98797.16
2022-09-17T14:16:03.563Z,98796.00
2022-09-17T14:18:36.954Z,98793.97
2022-09-17T14:21:14.491Z,98789.06
2022-09-17T14:23:46.936Z,98781.66
2022-09-17T14:26:20.913Z,98785.91
2022-09-17T14:28:51.497Z,98784.31
2022-09-17T14:31:20.909Z,98780.34
2022-09-17T14:33:49.904Z,98789.81
2022-09-17T14:36:20.213Z,98788.91
2022-09-17T14:38:49.120Z,98775.94
2022-09-17T14:41:21.576Z,98778.84
2022-09-17T14:43:51.675Z,98758.75
2022-09-17T14:46:22.385Z,98766.97
2022-09-17T14:48:51.704Z,98780.94
2022-09-17T14:51:28.174Z,98779.44
2022-09-17T14:54:22.526Z,98833.09
2022-09-17T14:56:53.984Z,98874.38
2022-09-17T14:59:30.612Z,98859.75
2022-09-17T15:01:58.458Z,98850.34
2022-09-17T15:04:28.649Z,98852.63
2022-09-17T15:07:08.139Z,98852.38
2022-09-17T15:09:35.726Z,98851.38
2022-09-17T15:12:04.740Z,98859.63
2022-09-17T15:14:33.992Z,98852.69
2022-09-17T15:17:02.856Z,98851.66
2022-09-17T15:19:35.962Z,98839.88
2022-09-17T15:22:06.609Z,98830.09
2022-09-17T15:24:39.969Z,98829.41
2022-09-17T15:27:13.730Z,98827.63
2022-09-17T15:29:43.900Z,98849.13
2022-09-17T15:32:13.777Z,98845.31
2022-09-17T15:34:42.855Z,98865.09
2022-09-17T15:37:20.279Z,98851.75
2022-09-17T15:39:52.913Z,98855.84
2022-09-17T15:42:22.994Z,98855.47
2022-09-17T15:44:50.911Z,98850.88
2022-09-17T15:47:45.724Z,98852.19
2022-09-17T15:50:16.891Z,98839.81
2022-09-17T15:52:44.800Z,98842.19
2022-09-17T15:55:30.460Z,98838.34
2022-09-17T15:57:59.082Z,98841.47
2022-09-17T16:00:27.065Z,98837.03
2022-09-17T16:02:55.578Z,98831.84
2022-09-17T16:05:55.628Z,98831.44
2022-09-17T16:08:25.282Z,98844.44
2022-09-17T16:10:53.104Z,98851.50
2022-09-17T16:13:23.194Z,98859.16
2022-09-17T16:15:54.185Z,98851.69
2022-09-17T16:18:21.802Z,98857.28
2022-09-17T16:20:50.837Z,98848.91
2022-09-17T16:23:18.520Z,98858.00
2022-09-17T16:25:46.066Z,98853.50
2022-09-17T16:28:15.094Z,98856.06
2022-09-17T16:30:45.987Z,98853.34
2022-09-17T16:33:14.613Z,98854.06
2022-09-17T16:35:43.042Z,98862.13
2022-09-17T16:38:12.872Z,98859.56
2022-09-17T16:40:44.035Z,98864.59
2022-09-17T16:43:11.851Z,98865.69
2022-09-17T16:45:39.774Z,98869.34
2022-09-17T16:48:07.889Z,98866.31
2022-09-17T16:50:36.347Z,98864.06
2022-09-17T16:53:05.498Z,98875.47
2022-09-17T16:55:34.556Z,98874.31
2022-09-17T16:58:02.959Z,98880.91
2022-09-17T17:00:30.570Z,98877.56
2022-09-17T17:02:58.696Z,98881.06
2022-09-17T17:05:27.766Z,98888.59
2022-09-17T17:07:55.962Z,98887.34
2022-09-17T17:10:23.945Z,98894.78
2022-09-17T17:12:52.952Z,98900.72
2022-09-17T17:15:21.554Z,98896.53
2022-09-17T17:17:49.162Z,98903.75
2022-09-17T17:20:16.856Z,98908.69
2022-09-17T17:22:44.682Z,98919.97
2022-09-17T17:25:13.962Z,98921.19
2022-09-17T17:27:41.776Z,98922.75
2022-09-17T17:30:16.675Z,98929.72
2022-09-17T17:32:44.839Z,98929.34
2022-09-17T17:35:12.825Z,98932.84
2022-09-17T17:37:40.366Z,98936.75
2022-09-17T17:40:09.584Z,98941.88
2022-09-17T17:42:38.770Z,98935.88
2022-09-17T17:45:07.844Z,98939.69
2022-09-17T17:47:36.819Z,98950.31
2022-09-17T17:50:05.046Z,98948.66
2022-09-17T17:52:32.775Z,98965.19
2022-09-17T17:55:00.319Z,98952.59
2022-09-17T17:57:28.305Z,98963.66
2022-09-17T17:59:55.886Z,98969.22
2022-09-17T18:02:23.517Z,98965.16
2022-09-17T18:04:52.533Z,98964.69
2022-09-17T18:07:20.045Z,98948.53
2022-09-17T18:09:47.796Z,98948.38
2022-09-17T18:12:15.514Z,98942.19
2022-09-17T18:14:43.052Z,98947.59
2022-09-17T18:17:10.647Z,98947.94
2022-09-17T18:19:38.301Z,98935.78
2022-09-17T18:22:07.326Z,98954.06
2022-09-17T18:24:34.893Z,98952.38
2022-09-17T18:27:02.414Z,98951.66
2022-09-17T18:29:30.089Z,98948.84
2022-09-17T18:31:57.603Z,98951.19
2022-09-17T18:34:25.308Z,98960.94
2022-09-17T18:36:53.185Z,98950.09
2022-09-17T18:42:09.676Z,98972.34
2022-09-17T18:44:37.250Z,98975.44
2022-09-17T18:47:04.914Z,98964.63
2022-09-17T18:49:32.420Z,98988.38
2022-09-17T18:51:59.929Z,98985.69
2022-09-17T18:54:28.878Z,98985.53
2022-09-17T18:56:56.591Z,98993.56
2022-09-17T18:59:24.145Z,98988.75
2022-09-17T19:01:51.745Z,98994.56
2022-09-17T19:04:19.292Z,99000.31
2022-09-17T19:06:46.882Z,99005.53
2022-09-17T19:09:14.541Z,99007.78
2022-09-17T19:11:43.460Z,99013.38
2022-09-17T19:14:11.674Z,99016.13
2022-09-17T19:16:39.606Z,99011.50
2022-09-17T19:19:07.153Z,99020.63
2022-09-17T19:21:34.742Z,99017.66
2022-09-17T19:24:03.090Z,99028.28
2022-09-17T19:26:30.636Z,99024.94
2022-09-17T19:29:00.453Z,99033.97
2022-09-17T19:31:28.693Z,99034.72
2022-09-17T19:33:58.430Z,99024.38
2022-09-17T19:36:26.079Z,99039.66
2022-09-17T19:38:53.655Z,99042.59
2022-09-17T19:41:23.005Z,99042.53
2022-09-17T19:43:51.844Z,99043.16
2022-09-17T19:46:22.260Z,99030.06
2022-09-17T19:48:53.586Z,99036.72
2022-09-17T19:51:24.360Z,99025.66
2022-09-17T19:53:52.281Z,99029.09
2022-09-17T19:56:21.942Z,99029.44
2022-09-17T19:58:49.445Z,99030.59
2022-09-17T20:01:17.376Z,99029.63
2022-09-17T20:03:46.677Z,99030.38
2022-09-17T20:06:15.874Z,99036.31
2022-09-17T20:08:47.345Z,99027.63
2022-09-17T20:11:16.030Z,99036.13
2022-09-17T20:13:43.563Z,99037.03
2022-09-17T20:16:12.980Z,99038.50
2022-09-17T20:18:40.558Z,99039.25
2022-09-17T20:21:10.354Z,99036.47
2022-09-17T20:23:38.101Z,99036.16
2022-09-17T20:26:06.469Z,99040.25
2022-09-17T20:28:34.177Z,99032.00
2022-09-17T20:31:03.146Z,99025.53
2022-09-17T20:33:30.973Z,99030.09
2022-09-17T20:35:59.926Z,99027.66
2022-09-17T20:41:17.505Z,99027.59
2022-09-17T20:43:46.436Z,99014.81
2022-09-17T20:46:14.400Z,99031.88
2022-09-17T20:48:42.276Z,99028.38
2022-09-17T20:51:12.080Z,99037.13
2022-09-17T20:53:42.019Z,99030.69
2022-09-17T20:56:11.093Z,99034.75
2022-09-17T20:58:45.251Z,99028.69
2022-09-17T21:01:14.812Z,99030.94
2022-09-17T21:03:43.561Z,99044.03
2022-09-17T21:06:16.957Z,99037.31
2022-09-17T21:08:46.397Z,99037.00
2022-09-17T21:11:14.409Z,99043.13
2022-09-17T21:13:42.427Z,99035.03
2022-09-17T21:16:10.438Z,99032.84
2022-09-17T21:18:39.766Z,99031.13
2022-09-17T21:21:09.280Z,99027.72
2022-09-17T21:23:38.023Z,99031.25
2022-09-17T21:26:08.324Z,99022.63
2022-09-17T21:28:36.939Z,99025.44
2022-09-17T21:31:06.093Z,99027.19
2022-09-17T21:33:33.708Z,99033.97
2022-09-17T21:36:06.131Z,99035.81
2022-09-17T21:38:33.854Z,99038.66
2022-09-17T21:41:03.316Z,99045.81
2022-09-17T21:43:32.475Z,99039.09
2022-09-17T21:46:04.486Z,99038.59
2022-09-17T21:48:33.965Z,99037.25
2022-09-17T21:51:06.305Z,99041.53
2022-09-17T21:53:34.207Z,99037.06
2022-09-17T21:56:06.949Z,99041.34
2022-09-17T21:58:35.922Z,99033.50
2022-09-17T22:01:08.087Z,99037.84
2022-09-17T22:03:35.973Z,99035.22
2022-09-17T22:06:05.960Z,99037.00
2022-09-17T22:08:34.407Z,99043.72
2022-09-17T22:11:07.236Z,99041.22
2022-09-17T22:13:36.790Z,99039.50
2022-09-17T22:16:06.077Z,99043.78
2022-09-17T22:18:35.072Z,99040.97
2022-09-17T22:21:02.859Z,99050.63
2022-09-17T22:23:33.482Z,99041.03
2022-09-17T22:26:02.271Z,99049.72
2022-09-17T22:28:29.824Z,99055.91
2022-09-17T22:31:02.045Z,99050.56
2022-09-17T22:33:32.813Z,99050.69
2022-09-17T22:36:04.436Z,99048.66
2022-09-17T22:38:32.034Z,99050.38
2022-09-17T22:41:04.295Z,99058.06
2022-09-17T22:43:31.986Z,99049.38
2022-09-17T22:46:00.987Z,99042.53
2022-09-17T22:48:28.530Z,99041.63
2022-09-17T22:50:56.064Z,99037.16
2022-09-17T22:53:23.603Z,99037.75
2022-09-17T22:55:55.033Z,99032.41
2022-09-17T22:58:24.244Z,99023.59
2022-09-17T23:00:53.037Z,99024.97
2022-09-17T23:03:21.964Z,99028.66
2022-09-17T23:05:49.575Z,99020.50
2022-09-17T23:08:17.208Z,99030.84
2022-09-17T23:10:44.836Z,99024.72
2022-09-17T23:13:12.411Z,99031.81
2022-09-17T23:15:40.496Z,99038.00
2022-09-17T23:18:08.559Z,99036.22
2022-09-17T23:20:37.525Z,99032.75
2022-09-17T23:23:05.096Z,99035.19
2022-09-17T23:25:33.270Z,99035.38
2022-09-17T23:28:00.900Z,99034.97
2022-09-17T23:30:28.990Z,99031.09
2022-09-17T23:32:57.330Z,99036.88
2022-09-17T23:35:25.155Z,99041.81
2022-09-17T23:37:54.005Z,99039.91
2022-09-17T23:40:22.161Z,99031.66
2022-09-17T23:42:49.755Z,99023.22
2022-09-17T23:45:17.433Z,99029.47
2022-09-17T23:47:45.411Z,99024.28
2022-09-17T23:50:13.248Z,99021.22
2022-09-17T23:52:40.842Z,99027.97
2022-09-17T23:55:10.576Z,99023.63
2022-09-17T23:57:38.983Z,99026.53
